Accueil
METAR-TAF:

METAR-TAF

Aéroports :

Villacoublay, France

Base aérienne 107 Villacoublay

latitude: 48-46N, longitude: 002-12E, altitude: 177 m

Observation

Le bulletin a été fait il y a 36 minutes, à 12:00 UTC
Vent 8 kt de ouest
Température 20°C
Humidité 68%
Pression 1010 hPa
Visibilité 10 km ou plus
Quelques nuages à une hauteur de 2700 ft
Nuages fragmentés à une hauteur de 3200 ft
Nuages fragmentés à une hauteur de 4200 ft

METAR: LFPV 271200Z AUTO 27008KT 9999 FEW027 BKN032 BKN042 20/14 Q1010 NOSIG

Heure: 14:36 (12:36 UTC)

Prévision

Le bulletin a été fait il y a 4 heures et 36 minutes, à 08:00 UTC
Prévision valable du 27 à 09 UTC au 28 à 09 UTC
Vent 10 kt de ouest
Visibilité 10 km ou plus
Nuages fragmentés à une hauteur de 3000 ft
Temporairement
du 27 à 09 UTC au 27 à 10 UTC
Nuages fragmentés à une hauteur de 1200 ft

TAF: LFPV 270800Z 2709/2809 26010KT 9999 BKN030 TEMPO 2709/2710 BKN012

Observations et prévisions météorologiques de plus de 4000 aéroports (messages METAR et TAF).

Les stations disponibles sont représentées par des disques jaunes et rouges sur la carte.

Passer la souris dessus pour voir le nom de la station.

Cliquer dessus pour voir les observations et prévisions météorologiques.

Pour changer de carte: cliquez sur les boutons verts avec une croix noire pour zoomer, sur le bouton vert avec un tiret pour effectuer un zoom arrière, ou sur les flèches vertes pour les cartes adjacentes.


METAR-TAF: